createdAt,value
2019-03-30T00:00:43.607Z,74.60
2019-03-30T00:01:43.598Z,74.53
2019-03-30T00:02:43.617Z,75.66
2019-03-30T00:03:43.576Z,75.15
2019-03-30T00:04:43.568Z,75.35
2019-03-30T00:05:43.547Z,75.45
2019-03-30T00:06:43.569Z,75.38
2019-03-30T00:07:43.535Z,75.18
2019-03-30T00:08:43.522Z,75.56
2019-03-30T00:09:43.507Z,75.35
2019-03-30T00:10:43.579Z,75.56
2019-03-30T00:11:43.490Z,74.94
2019-03-30T00:12:43.494Z,75.28
2019-03-30T00:13:43.471Z,75.38
2019-03-30T00:14:43.455Z,75.59
2019-03-30T00:15:43.447Z,75.79
2019-03-30T00:16:43.431Z,74.87
2019-03-30T00:17:43.453Z,75.90
2019-03-30T00:18:43.407Z,75.69
2019-03-30T00:19:43.402Z,75.69
2019-03-30T00:20:43.384Z,75.69
2019-03-30T00:21:43.389Z,75.79
2019-03-30T00:22:43.368Z,75.59
2019-03-30T00:23:43.385Z,75.69
2019-03-30T00:24:43.342Z,75.79
2019-03-30T00:25:43.341Z,76.10
2019-03-30T00:26:43.332Z,76.00
2019-03-30T00:27:43.313Z,75.90
2019-03-30T00:28:43.326Z,75.38
2019-03-30T00:29:43.304Z,75.90
2019-03-30T00:30:43.275Z,75.79
2019-03-30T00:31:43.291Z,75.59
2019-03-30T00:32:43.261Z,75.79
2019-03-30T00:33:43.286Z,75.69
2019-03-30T00:34:43.238Z,75.93
2019-03-30T00:35:43.236Z,76.24
2019-03-30T00:36:43.219Z,76.45
2019-03-30T00:37:43.217Z,76.04
2019-03-30T00:38:43.193Z,76.14
2019-03-30T00:39:43.209Z,76.65
2019-03-30T00:40:43.173Z,76.96
2019-03-30T00:41:43.150Z,76.34
2019-03-30T00:42:43.143Z,76.65
2019-03-30T00:43:43.133Z,76.34
2019-03-30T00:44:43.144Z,76.34
2019-03-30T00:45:43.113Z,75.83
2019-03-30T00:46:43.102Z,76.00
2019-03-30T00:47:43.091Z,75.90
2019-03-30T00:48:43.080Z,75.83
2019-03-30T00:49:49.111Z,76.10
2019-03-30T00:50:44.050Z,75.79
2019-03-30T00:51:43.041Z,75.73
2019-03-30T00:52:43.032Z,76.20
2019-03-30T00:53:43.029Z,75.90
2019-03-30T00:54:43.016Z,75.69
2019-03-30T00:55:43.018Z,75.90
2019-03-30T00:56:42.988Z,75.69
2019-03-30T00:57:42.988Z,75.79
2019-03-30T00:58:42.998Z,75.79
2019-03-30T00:59:42.970Z,75.69
2019-03-30T01:00:42.969Z,75.90
2019-03-30T01:01:42.937Z,75.79
2019-03-30T01:02:42.930Z,75.28
2019-03-30T01:03:42.909Z,75.28
2019-03-30T01:04:42.903Z,75.28
2019-03-30T01:05:42.915Z,75.28
2019-03-30T01:06:42.888Z,75.59
2019-03-30T01:07:43.016Z,75.59
2019-03-30T01:08:42.871Z,75.59
2019-03-30T01:09:42.843Z,75.59
2019-03-30T01:10:42.913Z,75.38
2019-03-30T01:11:42.834Z,75.49
2019-03-30T01:12:42.871Z,75.49
2019-03-30T01:13:42.811Z,75.49
2019-03-30T01:14:42.793Z,75.59
2019-03-30T01:15:42.783Z,75.38
2019-03-30T01:16:42.800Z,75.59
2019-03-30T01:17:42.767Z,75.28
2019-03-30T01:18:42.803Z,75.18
2019-03-30T01:19:42.741Z,75.18
2019-03-30T01:20:42.737Z,75.28
2019-03-30T01:21:42.716Z,75.28
2019-03-30T01:22:42.724Z,75.38
2019-03-30T01:23:42.693Z,75.28
2019-03-30T01:24:42.681Z,75.28
2019-03-30T01:25:42.676Z,75.49
2019-03-30T01:26:42.694Z,75.59
2019-03-30T01:27:42.680Z,74.84
2019-03-30T01:28:42.639Z,74.87
2019-03-30T01:29:42.638Z,75.69
2019-03-30T01:30:42.621Z,75.69
2019-03-30T01:31:42.615Z,74.87
2019-03-30T01:32:42.609Z,75.59
2019-03-30T01:33:42.612Z,75.08
2019-03-30T01:34:42.578Z,75.18
2019-03-30T01:35:42.565Z,75.93
2019-03-30T01:36:42.556Z,75.79
2019-03-30T01:37:42.548Z,75.49
2019-03-30T01:38:42.561Z,76.00
2019-03-30T01:39:42.523Z,75.28
2019-03-30T01:40:42.527Z,75.42
2019-03-30T01:41:42.499Z,75.38
2019-03-30T01:42:42.486Z,75.49
2019-03-30T01:43:42.507Z,75.28
2019-03-30T01:44:42.474Z,75.38
2019-03-30T01:45:42.464Z,75.38
2019-03-30T01:46:42.454Z,75.28
2019-03-30T01:47:42.464Z,74.87
2019-03-30T01:48:42.441Z,74.77
2019-03-30T01:49:42.489Z,74.77
2019-03-30T01:50:42.405Z,74.15
2019-03-30T01:51:42.395Z,74.77
2019-03-30T01:52:42.388Z,74.36
2019-03-30T01:53:42.386Z,74.87
2019-03-30T01:54:42.361Z,74.77
2019-03-30T01:55:42.345Z,74.36
2019-03-30T01:56:42.336Z,74.66
2019-03-30T01:57:42.328Z,74.36
2019-03-30T01:58:42.340Z,74.53
2019-03-30T01:59:42.330Z,73.71
2019-03-30T02:00:42.332Z,73.91
2019-03-30T02:01:42.286Z,74.02
2019-03-30T02:02:42.281Z,74.12
2019-03-30T02:03:42.262Z,73.91
2019-03-30T02:04:42.254Z,74.02
2019-03-30T02:05:42.261Z,73.61
2019-03-30T02:06:42.226Z,73.19
2019-03-30T02:07:42.214Z,73.10
2019-03-30T02:08:42.217Z,72.89
2019-03-30T02:09:42.225Z,73.19
2019-03-30T02:10:42.188Z,72.99
2019-03-30T02:11:42.206Z,72.99
2019-03-30T02:12:42.168Z,73.40
2019-03-30T02:13:42.150Z,73.50
2019-03-30T02:14:42.141Z,73.64
2019-03-30T02:15:42.133Z,74.05
2019-03-30T02:16:42.142Z,73.95
2019-03-30T02:17:42.110Z,73.81
2019-03-30T02:18:42.104Z,73.95
2019-03-30T02:19:42.088Z,74.05
2019-03-30T02:20:42.077Z,73.85
2019-03-30T02:21:42.098Z,73.64
2019-03-30T02:22:42.058Z,73.85
2019-03-30T02:23:42.049Z,73.95
2019-03-30T02:24:42.039Z,73.74
2019-03-30T02:25:42.025Z,73.64
2019-03-30T02:26:42.033Z,73.85
2019-03-30T02:27:42.023Z,73.95
2019-03-30T02:28:41.986Z,73.33
2019-03-30T02:29:41.985Z,74.26
2019-03-30T02:30:41.972Z,74.15
2019-03-30T02:31:41.958Z,73.95
2019-03-30T02:32:42.266Z,73.44
2019-03-30T02:33:41.937Z,74.15
2019-03-30T02:34:41.935Z,73.64
2019-03-30T02:35:41.919Z,74.05
2019-03-30T02:36:41.906Z,74.66
2019-03-30T02:37:41.889Z,73.95
2019-03-30T02:38:41.911Z,74.15
2019-03-30T02:39:41.867Z,74.15
2019-03-30T02:40:41.859Z,73.95
2019-03-30T02:41:41.853Z,73.85
2019-03-30T02:42:41.844Z,73.95
2019-03-30T02:43:41.856Z,73.64
2019-03-30T02:44:41.821Z,74.08
2019-03-30T02:45:41.820Z,74.40
2019-03-30T02:46:41.793Z,74.49
2019-03-30T02:47:41.809Z,74.80
2019-03-30T02:48:41.782Z,74.91
2019-03-30T02:49:41.790Z,74.29
2019-03-30T02:50:50.092Z,74.87
2019-03-30T02:51:42.737Z,74.80
2019-03-30T02:52:41.844Z,74.70
2019-03-30T02:53:41.742Z,74.80
2019-03-30T02:54:41.713Z,74.40
2019-03-30T02:55:41.732Z,74.80
2019-03-30T02:56:41.691Z,74.80
2019-03-30T02:57:41.690Z,74.60
2019-03-30T02:58:41.664Z,74.80
2019-03-30T02:59:41.651Z,74.29
2019-03-30T03:00:41.643Z,75.83
2019-03-30T03:01:41.658Z,75.52
2019-03-30T03:02:41.623Z,74.80
2019-03-30T03:03:41.608Z,74.40
2019-03-30T03:04:41.594Z,74.70
2019-03-30T03:05:41.596Z,74.49
2019-03-30T03:06:41.602Z,74.57
2019-03-30T03:07:41.572Z,74.57
2019-03-30T03:08:41.565Z,74.15
2019-03-30T03:09:41.542Z,73.85
2019-03-30T03:10:41.540Z,74.05
2019-03-30T03:11:41.551Z,73.74
2019-03-30T03:12:41.557Z,74.05
2019-03-30T03:13:41.502Z,74.36
2019-03-30T03:14:41.491Z,73.74
2019-03-30T03:15:41.478Z,74.15
2019-03-30T03:16:41.510Z,74.05
2019-03-30T03:17:41.475Z,73.44
2019-03-30T03:18:41.445Z,73.23
2019-03-30T03:19:41.434Z,74.26
2019-03-30T03:20:41.543Z,73.88
2019-03-30T03:21:41.440Z,73.88
2019-03-30T03:22:41.411Z,74.60
2019-03-30T03:23:41.397Z,74.80
2019-03-30T03:24:41.407Z,74.80
2019-03-30T03:25:41.370Z,74.40
2019-03-30T03:26:41.359Z,74.60
2019-03-30T03:27:41.380Z,74.70
2019-03-30T03:28:41.343Z,75.73
2019-03-30T03:29:43.738Z,74.40
2019-03-30T03:30:41.328Z,74.29
2019-03-30T03:31:41.310Z,74.80
2019-03-30T03:32:41.321Z,74.70
2019-03-30T03:33:41.291Z,74.46
2019-03-30T03:34:41.277Z,74.70
2019-03-30T03:35:41.268Z,74.40
2019-03-30T03:36:41.259Z,74.19
2019-03-30T03:37:45.638Z,74.60
2019-03-30T03:38:42.232Z,74.08
2019-03-30T03:39:41.255Z,74.40
2019-03-30T03:40:41.207Z,74.60
2019-03-30T03:41:41.201Z,74.49
2019-03-30T03:42:41.210Z,74.60
2019-03-30T03:43:41.182Z,74.19
2019-03-30T03:44:41.177Z,74.40
2019-03-30T03:45:41.159Z,74.60
2019-03-30T03:46:41.153Z,74.74
2019-03-30T03:47:41.160Z,75.35
2019-03-30T03:48:41.123Z,75.35
2019-03-30T03:49:41.117Z,75.25
2019-03-30T03:50:41.120Z,75.35
2019-03-30T03:51:41.088Z,74.70
2019-03-30T03:52:41.102Z,74.60
2019-03-30T03:53:41.075Z,74.80
2019-03-30T03:54:41.064Z,75.11
2019-03-30T03:55:41.051Z,74.40
2019-03-30T03:56:41.065Z,74.60
2019-03-30T03:57:41.061Z,74.49
2019-03-30T03:58:41.034Z,74.49
2019-03-30T03:59:41.003Z,74.49
2019-03-30T04:00:40.991Z,74.60
2019-03-30T04:01:40.998Z,74.36
2019-03-30T04:02:41.000Z,74.19
2019-03-30T04:03:40.982Z,74.08
2019-03-30T04:04:40.962Z,73.74
2019-03-30T04:05:40.951Z,73.68
2019-03-30T04:06:40.926Z,74.08
2019-03-30T04:07:40.943Z,73.88
2019-03-30T04:08:40.914Z,73.98
2019-03-30T04:09:40.894Z,74.08
2019-03-30T04:10:40.909Z,73.98
2019-03-30T04:11:40.872Z,74.40
2019-03-30T04:12:40.863Z,74.43
2019-03-30T04:13:40.860Z,74.53
2019-03-30T04:14:40.860Z,74.32
2019-03-30T04:15:40.868Z,74.60
2019-03-30T04:16:40.825Z,74.40
2019-03-30T04:17:40.807Z,74.40
2019-03-30T04:18:40.798Z,73.71
2019-03-30T04:19:40.799Z,74.12
2019-03-30T04:20:40.774Z,74.63
2019-03-30T04:21:44.514Z,74.84
2019-03-30T04:22:40.764Z,74.74
2019-03-30T04:23:40.758Z,75.29
2019-03-30T04:24:40.735Z,74.74
2019-03-30T04:25:40.746Z,74.87
2019-03-30T04:26:40.729Z,74.77
2019-03-30T04:27:40.738Z,74.98
2019-03-30T04:28:40.701Z,74.87
2019-03-30T04:29:40.677Z,74.36
2019-03-30T04:30:40.666Z,74.98
2019-03-30T04:31:40.673Z,75.80
2019-03-30T04:32:40.646Z,75.80
2019-03-30T04:33:40.660Z,74.98
2019-03-30T04:34:40.632Z,74.77
2019-03-30T04:35:40.620Z,74.98
2019-03-30T04:36:40.637Z,74.87
2019-03-30T04:37:40.590Z,74.98
2019-03-30T04:38:40.602Z,75.80
2019-03-30T04:39:40.581Z,75.18
2019-03-30T04:40:40.564Z,76.00
2019-03-30T04:41:40.548Z,75.83
2019-03-30T04:42:40.561Z,76.04
2019-03-30T04:43:40.526Z,75.90
2019-03-30T04:44:40.514Z,76.21
2019-03-30T04:45:40.528Z,76.55
2019-03-30T04:46:40.514Z,75.80
2019-03-30T04:47:40.512Z,76.14
2019-03-30T04:48:40.482Z,76.45
2019-03-30T04:49:40.493Z,77.17
2019-03-30T04:50:40.460Z,77.41
2019-03-30T04:51:40.448Z,77.17
2019-03-30T04:52:40.433Z,76.97
2019-03-30T04:53:40.422Z,76.76
2019-03-30T04:54:40.413Z,76.14
2019-03-30T04:55:40.419Z,76.18
2019-03-30T04:56:40.391Z,76.65
2019-03-30T04:57:40.385Z,76.86
2019-03-30T04:58:40.372Z,77.41
2019-03-30T04:59:40.372Z,77.62
2019-03-30T05:00:40.372Z,77.92
2019-03-30T05:01:40.333Z,77.92
2019-03-30T05:02:40.327Z,78.03
2019-03-30T05:03:40.330Z,77.62
2019-03-30T05:04:40.298Z,77.51
2019-03-30T05:05:43.126Z,77.89
2019-03-30T05:06:40.284Z,76.97
2019-03-30T05:07:40.272Z,76.69
2019-03-30T05:08:40.295Z,76.14
2019-03-30T05:09:40.762Z,76.45
2019-03-30T05:10:40.234Z,76.25
2019-03-30T05:11:40.293Z,75.93
2019-03-30T05:12:40.220Z,76.25
2019-03-30T05:13:40.205Z,75.93
2019-03-30T05:14:40.329Z,76.14
2019-03-30T05:15:40.196Z,76.10
2019-03-30T05:16:40.184Z,76.10
2019-03-30T05:17:47.347Z,75.80
2019-03-30T05:18:41.152Z,75.80
2019-03-30T05:19:40.167Z,76.10
2019-03-30T05:20:40.132Z,75.49
2019-03-30T05:21:40.164Z,75.70
2019-03-30T05:22:40.112Z,75.08
2019-03-30T05:23:40.101Z,74.98
2019-03-30T05:24:40.087Z,75.70
2019-03-30T05:25:40.079Z,75.59
2019-03-30T05:26:40.070Z,74.57
2019-03-30T05:27:40.126Z,75.49
2019-03-30T05:28:40.044Z,75.38
2019-03-30T05:29:40.044Z,75.38
2019-03-30T05:30:40.026Z,75.38
2019-03-30T05:31:40.014Z,75.80
2019-03-30T05:32:41.788Z,75.59
2019-03-30T05:33:39.988Z,74.57
2019-03-30T05:34:39.981Z,75.49
2019-03-30T05:35:39.965Z,75.93
2019-03-30T05:36:39.956Z,76.04
2019-03-30T05:37:39.976Z,76.28
2019-03-30T05:38:39.940Z,76.45
2019-03-30T05:39:39.942Z,76.45
2019-03-30T05:40:39.951Z,76.97
2019-03-30T05:41:39.898Z,76.86
2019-03-30T05:42:39.891Z,76.69
2019-03-30T05:43:39.886Z,76.76
2019-03-30T05:44:39.921Z,76.55
2019-03-30T05:45:39.885Z,76.45
2019-03-30T05:46:39.846Z,76.35
2019-03-30T05:47:39.834Z,76.14
2019-03-30T05:48:39.822Z,75.93
2019-03-30T05:49:39.818Z,75.93
2019-03-30T05:50:39.837Z,75.93
2019-03-30T05:51:39.800Z,75.80
2019-03-30T05:52:39.786Z,75.59
2019-03-30T05:53:39.772Z,75.38
2019-03-30T05:54:39.758Z,75.49
2019-03-30T05:55:39.750Z,75.15
2019-03-30T05:56:39.760Z,75.35
2019-03-30T05:57:39.734Z,75.59
2019-03-30T05:58:39.723Z,74.98
2019-03-30T05:59:39.706Z,74.32
2019-03-30T06:00:39.694Z,74.84
2019-03-30T06:01:39.711Z,74.43
2019-03-30T06:02:39.688Z,74.43
2019-03-30T06:03:39.676Z,74.32
2019-03-30T06:04:39.659Z,73.50
2019-03-30T06:05:39.647Z,74.63
2019-03-30T06:06:39.652Z,74.63
2019-03-30T06:07:39.620Z,75.56
2019-03-30T06:08:39.607Z,74.94
2019-03-30T06:09:39.607Z,74.43
2019-03-30T06:10:39.601Z,74.63
2019-03-30T06:11:39.605Z,74.32
2019-03-30T06:12:39.567Z,74.12
2019-03-30T06:13:39.553Z,74.22
2019-03-30T06:14:39.546Z,73.71
2019-03-30T06:15:39.543Z,74.12
2019-03-30T06:16:39.547Z,73.71
2019-03-30T06:17:39.509Z,74.08
2019-03-30T06:18:39.499Z,73.81
2019-03-30T06:19:39.488Z,73.81
2019-03-30T06:20:39.490Z,74.12
2019-03-30T06:21:39.504Z,74.12
2019-03-30T06:22:40.421Z,73.71
2019-03-30T06:23:39.481Z,74.40
2019-03-30T06:24:39.442Z,74.49
2019-03-30T06:25:39.433Z,74.29
2019-03-30T06:26:39.412Z,73.57
2019-03-30T06:27:39.435Z,73.98
2019-03-30T06:28:39.388Z,73.47
2019-03-30T06:29:39.812Z,73.33
2019-03-30T06:30:39.375Z,73.27
2019-03-30T06:31:39.391Z,73.23
2019-03-30T06:32:39.395Z,73.33
2019-03-30T06:33:39.342Z,73.78
2019-03-30T06:34:39.337Z,73.74
2019-03-30T06:35:39.324Z,73.78
2019-03-30T06:36:39.310Z,73.06
2019-03-30T06:37:39.291Z,73.23
2019-03-30T06:38:39.305Z,73.95
2019-03-30T06:39:39.278Z,73.68
2019-03-30T06:40:39.262Z,73.95
2019-03-30T06:41:39.253Z,73.44
2019-03-30T06:42:39.244Z,73.13
2019-03-30T06:43:39.255Z,73.74
2019-03-30T06:44:39.235Z,73.64
2019-03-30T06:45:39.548Z,73.74
2019-03-30T06:46:39.876Z,73.54
2019-03-30T06:47:39.999Z,73.64
2019-03-30T06:48:39.696Z,73.85
2019-03-30T06:49:39.490Z,73.95
2019-03-30T06:50:39.287Z,73.71
2019-03-30T06:51:39.578Z,72.89
2019-03-30T06:52:42.747Z,72.58
2019-03-30T06:53:40.567Z,72.89
2019-03-30T06:54:39.267Z,72.38
2019-03-30T06:55:39.427Z,72.78
2019-03-30T06:56:39.733Z,72.68
2019-03-30T06:57:39.938Z,72.78
2019-03-30T06:58:39.219Z,72.55
2019-03-30T06:59:39.422Z,72.58
2019-03-30T07:00:39.435Z,72.89
2019-03-30T07:01:39.476Z,72.89
2019-03-30T07:02:39.379Z,72.07
2019-03-30T07:03:39.075Z,72.89
2019-03-30T07:04:39.259Z,72.58
2019-03-30T07:05:39.373Z,72.99
2019-03-30T07:06:38.991Z,73.91
2019-03-30T07:07:38.983Z,73.19
2019-03-30T07:08:38.973Z,72.75
2019-03-30T07:09:38.952Z,72.89
2019-03-30T07:10:38.989Z,73.10
2019-03-30T07:11:39.253Z,72.38
2019-03-30T07:12:39.321Z,72.55
2019-03-30T07:13:39.129Z,72.44
2019-03-30T07:14:40.155Z,72.65
2019-03-30T07:15:39.683Z,72.55
2019-03-30T07:16:39.344Z,72.03
2019-03-30T07:17:39.153Z,72.75
2019-03-30T07:18:39.214Z,72.86
2019-03-30T07:19:39.133Z,73.64
2019-03-30T07:20:39.013Z,72.72
2019-03-30T07:21:38.927Z,72.31
2019-03-30T07:22:39.106Z,72.00
2019-03-30T07:23:39.207Z,71.66
2019-03-30T07:24:39.012Z,71.25
2019-03-30T07:25:39.009Z,71.22
2019-03-30T07:26:39.138Z,71.22
2019-03-30T07:27:39.127Z,71.22
2019-03-30T07:28:39.783Z,70.88
2019-03-30T07:29:39.307Z,70.37
2019-03-30T07:30:39.198Z,70.16
2019-03-30T07:31:39.227Z,70.13
2019-03-30T07:32:38.994Z,69.82
2019-03-30T07:33:38.799Z,69.62
2019-03-30T07:34:41.603Z,69.42
2019-03-30T07:35:38.791Z,69.21
2019-03-30T07:36:39.353Z,68.87
2019-03-30T07:37:39.027Z,68.77
2019-03-30T07:38:38.758Z,68.87
2019-03-30T07:39:38.833Z,68.66
2019-03-30T07:40:40.124Z,68.77
2019-03-30T07:41:39.910Z,68.12
2019-03-30T07:42:38.758Z,67.92
2019-03-30T07:43:38.966Z,67.61
2019-03-30T07:44:38.864Z,67.18
2019-03-30T07:45:38.657Z,67.27
2019-03-30T07:46:38.982Z,66.74
2019-03-30T07:47:38.691Z,66.74
2019-03-30T07:48:38.589Z,65.78
2019-03-30T07:49:38.565Z,66.70
2019-03-30T07:50:38.548Z,65.68
2019-03-30T07:51:38.574Z,65.68
2019-03-30T07:52:38.578Z,65.14
2019-03-30T07:53:44.276Z,65.58
2019-03-30T07:54:39.494Z,65.55
2019-03-30T07:55:38.551Z,65.55
2019-03-30T07:56:38.478Z,64.53
2019-03-30T07:57:38.478Z,65.34
2019-03-30T07:58:38.557Z,65.17
2019-03-30T07:59:38.459Z,65.14
2019-03-30T08:00:38.439Z,65.04
2019-03-30T08:01:38.435Z,65.25
2019-03-30T08:02:38.383Z,65.55
2019-03-30T08:03:38.368Z,65.65
2019-03-30T08:04:38.436Z,65.52
2019-03-30T08:05:38.376Z,64.90
2019-03-30T08:06:38.394Z,65.01
2019-03-30T08:07:38.364Z,63.96
2019-03-30T08:08:38.340Z,63.65
2019-03-30T08:09:38.403Z,63.65
2019-03-30T08:10:38.379Z,63.22
2019-03-30T08:11:38.365Z,62.92
2019-03-30T08:12:38.306Z,63.12
2019-03-30T08:13:38.298Z,62.81
2019-03-30T08:14:38.281Z,62.17
2019-03-30T08:15:38.298Z,62.88
2019-03-30T08:16:38.264Z,61.13
2019-03-30T08:17:38.237Z,61.13
2019-03-30T08:18:38.230Z,60.79
2019-03-30T08:19:38.240Z,60.59
2019-03-30T08:20:38.256Z,60.38
2019-03-30T08:21:38.254Z,60.36
2019-03-30T08:22:38.179Z,60.25
2019-03-30T08:23:40.569Z,60.02
2019-03-30T08:24:38.173Z,59.92
2019-03-30T08:25:38.208Z,58.27
2019-03-30T08:26:38.134Z,58.67
2019-03-30T08:27:38.133Z,57.84
2019-03-30T08:28:38.097Z,57.97
2019-03-30T08:29:38.099Z,57.53
2019-03-30T08:30:38.100Z,57.64
2019-03-30T08:31:38.113Z,57.12
2019-03-30T08:32:38.083Z,57.53
2019-03-30T08:33:38.040Z,57.10
2019-03-30T08:34:38.029Z,56.49
2019-03-30T08:35:38.055Z,56.59
2019-03-30T08:36:38.003Z,56.46
2019-03-30T08:37:38.002Z,55.96
2019-03-30T08:38:37.992Z,55.12
2019-03-30T08:39:37.972Z,55.52
2019-03-30T08:40:37.958Z,55.32
2019-03-30T08:41:37.994Z,54.71
2019-03-30T08:42:37.975Z,54.82
2019-03-30T08:43:37.948Z,55.12
2019-03-30T08:44:37.969Z,54.82
2019-03-30T08:45:37.907Z,54.79
2019-03-30T08:46:37.931Z,54.69
2019-03-30T08:47:37.904Z,54.86
2019-03-30T08:48:37.871Z,53.83
2019-03-30T08:49:37.868Z,53.50
2019-03-30T08:50:37.880Z,52.87
2019-03-30T08:51:37.962Z,52.76
2019-03-30T08:52:37.874Z,51.50
2019-03-30T08:53:37.824Z,50.55
2019-03-30T08:54:37.820Z,47.94
2019-03-30T08:55:37.815Z,45.31
2019-03-30T08:56:37.793Z,42.25
2019-03-30T08:57:37.784Z,39.56
2019-03-30T08:58:37.787Z,37.53
2019-03-30T08:59:37.751Z,34.46
2019-03-30T09:00:37.744Z,33.34
2019-03-30T09:01:37.737Z,32.39
2019-03-30T09:02:37.725Z,31.15
2019-03-30T09:03:37.747Z,29.72
2019-03-30T09:04:37.726Z,29.27
2019-03-30T09:05:37.749Z,27.56
2019-03-30T09:06:37.680Z,26.63
2019-03-30T09:07:37.667Z,26.32
2019-03-30T09:08:37.686Z,25.71
2019-03-30T09:09:37.651Z,25.94
2019-03-30T09:10:37.644Z,26.63
2019-03-30T09:11:37.624Z,26.24
2019-03-30T09:12:37.615Z,26.18
2019-03-30T09:13:37.614Z,26.05
2019-03-30T09:14:37.628Z,25.93
2019-03-30T09:15:37.612Z,25.71
2019-03-30T09:16:37.584Z,25.60
2019-03-30T09:17:37.621Z,24.80
2019-03-30T09:18:37.561Z,23.71
2019-03-30T09:19:37.544Z,23.71
2019-03-30T09:20:37.563Z,24.51
2019-03-30T09:21:46.393Z,24.92
2019-03-30T09:22:37.529Z,24.33
2019-03-30T09:23:37.518Z,24.25
2019-03-30T09:24:37.494Z,24.24
2019-03-30T09:25:37.511Z,24.60
2019-03-30T09:26:37.483Z,24.59
2019-03-30T09:27:37.466Z,24.99
2019-03-30T09:28:37.458Z,24.53
2019-03-30T09:29:37.445Z,26.67
2019-03-30T09:30:37.506Z,26.05
2019-03-30T09:31:37.431Z,25.26
2019-03-30T09:32:37.425Z,25.45
2019-03-30T09:33:37.414Z,24.82
2019-03-30T09:34:37.402Z,24.82
2019-03-30T09:35:37.392Z,23.93
2019-03-30T09:36:37.480Z,23.63
2019-03-30T09:37:37.368Z,23.71
2019-03-30T09:38:37.358Z,23.49
2019-03-30T09:39:37.373Z,23.58
2019-03-30T09:40:37.347Z,22.28
2019-03-30T09:41:37.395Z,22.86
2019-03-30T09:42:37.351Z,22.10
2019-03-30T09:43:37.814Z,23.30
2019-03-30T09:44:37.312Z,22.91
2019-03-30T09:45:37.326Z,23.58
2019-03-30T09:46:37.319Z,23.28
2019-03-30T09:47:37.368Z,21.91
2019-03-30T09:48:37.302Z,22.09
2019-03-30T09:49:37.321Z,21.58
2019-03-30T09:50:37.275Z,22.44
2019-03-30T09:51:37.291Z,20.77
2019-03-30T09:52:37.378Z,20.47
2019-03-30T09:53:37.282Z,20.14
2019-03-30T09:54:37.218Z,20.14
2019-03-30T09:55:37.203Z,20.34
2019-03-30T09:56:37.193Z,20.95
2019-03-30T09:57:37.185Z,20.84
2019-03-30T09:58:37.201Z,20.67
2019-03-30T09:59:37.161Z,22.14
2019-03-30T10:00:37.152Z,22.61
2019-03-30T10:01:37.144Z,23.44
2019-03-30T10:02:37.194Z,23.54
2019-03-30T10:03:37.167Z,23.72
2019-03-30T10:04:37.117Z,22.84
2019-03-30T10:05:37.109Z,24.17
2019-03-30T10:06:37.172Z,24.29
2019-03-30T10:07:37.094Z,24.87
2019-03-30T10:08:37.078Z,25.04
2019-03-30T10:09:37.088Z,24.93
2019-03-30T10:10:37.061Z,24.92
2019-03-30T10:11:37.058Z,23.85
2019-03-30T10:12:37.079Z,25.88
2019-03-30T10:13:37.045Z,27.10
2019-03-30T10:14:37.046Z,27.13
2019-03-30T10:15:37.014Z,26.55
2019-03-30T10:16:37.003Z,26.64
2019-03-30T10:17:36.994Z,27.44
2019-03-30T10:18:36.995Z,28.37
2019-03-30T10:19:36.994Z,29.58
2019-03-30T10:20:36.959Z,29.30
2019-03-30T10:21:36.965Z,29.30
2019-03-30T10:22:36.941Z,30.22
2019-03-30T10:23:36.942Z,30.12
2019-03-30T10:24:38.436Z,31.07
2019-03-30T10:25:36.920Z,32.31
2019-03-30T10:26:36.908Z,33.65
2019-03-30T10:27:36.927Z,33.88
2019-03-30T10:28:36.885Z,34.78
2019-03-30T10:29:36.913Z,34.00
2019-03-30T10:30:36.876Z,33.50
2019-03-30T10:31:36.853Z,35.23
2019-03-30T10:32:36.852Z,35.24
2019-03-30T10:33:36.866Z,35.24
2019-03-30T10:34:39.483Z,35.96
2019-03-30T10:35:36.819Z,36.06
2019-03-30T10:36:36.808Z,36.06
2019-03-30T10:37:36.796Z,35.06
2019-03-30T10:38:36.789Z,35.76
2019-03-30T10:39:36.794Z,35.64
2019-03-30T10:40:36.765Z,36.06
2019-03-30T10:41:36.751Z,34.94
2019-03-30T10:42:36.742Z,35.33
2019-03-30T10:43:36.741Z,35.33
2019-03-30T10:44:36.755Z,35.23
2019-03-30T10:45:36.723Z,35.54
2019-03-30T10:46:36.700Z,35.64
2019-03-30T10:47:36.695Z,35.35
2019-03-30T10:48:36.682Z,35.46
2019-03-30T10:49:36.681Z,36.06
2019-03-30T10:50:36.687Z,36.69
2019-03-30T10:51:36.644Z,36.61
2019-03-30T10:52:36.633Z,37.33
2019-03-30T10:53:36.622Z,38.27
2019-03-30T10:54:36.614Z,37.95
2019-03-30T10:55:36.630Z,38.15
2019-03-30T10:56:36.600Z,37.16
2019-03-30T10:57:36.587Z,37.57
2019-03-30T10:58:36.573Z,37.57
2019-03-30T10:59:36.734Z,38.18
2019-03-30T11:00:36.568Z,37.70
2019-03-30T11:01:36.548Z,38.70
2019-03-30T11:02:36.534Z,38.32
2019-03-30T11:03:36.514Z,37.72
2019-03-30T11:04:37.754Z,37.72
2019-03-30T11:05:36.577Z,39.34
2019-03-30T11:06:36.484Z,39.53
2019-03-30T11:07:36.479Z,39.31
2019-03-30T11:08:36.467Z,39.18
2019-03-30T11:09:36.483Z,38.57
2019-03-30T11:10:36.467Z,38.27
2019-03-30T11:11:36.428Z,38.15
2019-03-30T11:12:36.434Z,37.95
2019-03-30T11:13:36.405Z,37.96
2019-03-30T11:14:36.395Z,37.66
2019-03-30T11:15:36.423Z,38.27
2019-03-30T11:16:36.383Z,38.67
2019-03-30T11:17:36.375Z,38.77
2019-03-30T11:18:36.353Z,38.87
2019-03-30T11:19:36.347Z,39.17
2019-03-30T11:20:36.391Z,38.89
2019-03-30T11:21:36.364Z,38.39
2019-03-30T11:22:36.319Z,38.81
2019-03-30T11:23:36.298Z,39.51
2019-03-30T11:24:36.286Z,39.73
2019-03-30T11:25:36.278Z,40.11
2019-03-30T11:26:36.270Z,39.73
2019-03-30T11:27:36.280Z,40.03
2019-03-30T11:28:36.255Z,39.83
2019-03-30T11:29:36.240Z,39.93
2019-03-30T11:30:36.228Z,40.13
2019-03-30T11:31:36.219Z,40.73
2019-03-30T11:32:36.230Z,41.03
2019-03-30T11:33:36.197Z,40.01
2019-03-30T11:34:36.193Z,40.01
2019-03-30T11:35:36.171Z,40.99
2019-03-30T11:36:36.161Z,39.79
2019-03-30T11:37:36.148Z,39.59
2019-03-30T11:38:36.165Z,38.89
2019-03-30T11:39:36.134Z,38.90
2019-03-30T11:40:36.124Z,38.51
2019-03-30T11:41:36.113Z,38.82
2019-03-30T11:42:36.106Z,38.92
2019-03-30T11:43:36.102Z,38.66
2019-03-30T11:44:36.072Z,39.66
2019-03-30T11:45:36.079Z,38.96
2019-03-30T11:46:36.049Z,40.17
2019-03-30T11:47:36.048Z,39.66
2019-03-30T11:48:37.679Z,40.06
2019-03-30T11:49:36.033Z,39.26
2019-03-30T11:50:36.012Z,39.45
2019-03-30T11:51:36.003Z,39.78
2019-03-30T11:52:36.021Z,40.59
2019-03-30T11:53:36.001Z,40.19
2019-03-30T11:54:35.976Z,40.48
2019-03-30T11:55:35.951Z,41.29
2019-03-30T11:56:35.945Z,40.19
2019-03-30T11:57:35.962Z,40.28
2019-03-30T11:58:35.922Z,40.70
2019-03-30T11:59:35.921Z,41.01
2019-03-30T12:00:35.924Z,41.21
2019-03-30T12:01:35.903Z,42.01
2019-03-30T12:02:35.884Z,41.61
2019-03-30T12:03:35.887Z,41.53
2019-03-30T12:04:35.856Z,41.71
2019-03-30T12:05:35.846Z,41.91
2019-03-30T12:06:35.839Z,41.51
2019-03-30T12:07:35.820Z,41.11
2019-03-30T12:08:35.830Z,41.21
2019-03-30T12:09:35.798Z,40.61
2019-03-30T12:10:35.786Z,41.61
2019-03-30T12:11:35.787Z,41.09
2019-03-30T12:12:37.446Z,41.89
2019-03-30T12:13:35.805Z,41.77
2019-03-30T12:14:35.753Z,41.67
2019-03-30T12:15:35.735Z,41.15
2019-03-30T12:16:35.721Z,40.95
2019-03-30T12:17:35.712Z,40.15
2019-03-30T12:18:35.700Z,40.93
2019-03-30T12:19:35.778Z,40.03
2019-03-30T12:20:35.684Z,38.72
2019-03-30T12:21:35.666Z,39.32
2019-03-30T12:22:35.659Z,38.31
2019-03-30T12:23:35.652Z,38.42
2019-03-30T12:24:35.671Z,38.32
2019-03-30T12:25:36.257Z,38.94
2019-03-30T12:26:35.618Z,39.95
2019-03-30T12:27:35.633Z,40.57
2019-03-30T12:28:35.589Z,39.86
2019-03-30T12:29:35.622Z,40.17
2019-03-30T12:30:35.881Z,40.05
2019-03-30T12:31:35.561Z,39.54
2019-03-30T12:32:35.560Z,39.04
2019-03-30T12:33:35.542Z,38.74
2019-03-30T12:34:35.531Z,38.64
2019-03-30T12:35:35.536Z,38.84
2019-03-30T12:36:35.522Z,37.84
2019-03-30T12:37:35.495Z,37.74
2019-03-30T12:38:35.485Z,37.74
2019-03-30T12:39:35.504Z,38.74
2019-03-30T12:40:35.505Z,38.96
2019-03-30T12:41:35.470Z,38.06
2019-03-30T12:42:35.434Z,38.64
2019-03-30T12:43:38.780Z,37.94
2019-03-30T12:44:35.415Z,38.94
2019-03-30T12:45:35.453Z,38.62
2019-03-30T12:46:35.478Z,37.52
2019-03-30T12:47:35.391Z,39.23
2019-03-30T12:48:35.373Z,38.82
2019-03-30T12:49:35.355Z,39.03
2019-03-30T12:50:35.370Z,38.12
2019-03-30T12:51:35.409Z,37.82
2019-03-30T12:52:35.349Z,38.02